createdAt,value
2018-09-22T00:00:02.983Z,23.88
2018-09-22T00:00:35.153Z,23.88
2018-09-22T00:01:07.392Z,23.88
2018-09-22T00:01:39.565Z,23.88
2018-09-22T00:02:11.711Z,23.89
2018-09-22T00:02:43.865Z,23.88
2018-09-22T00:03:16.013Z,23.88
2018-09-22T00:03:48.129Z,23.89
2018-09-22T00:04:20.319Z,23.87
2018-09-22T00:04:52.494Z,23.88
2018-09-22T00:05:24.829Z,23.88
2018-09-22T00:05:56.934Z,23.88
2018-09-22T00:06:29.087Z,23.88
2018-09-22T00:07:01.292Z,23.89
2018-09-22T00:07:33.552Z,23.89
2018-09-22T00:08:05.705Z,23.88
2018-09-22T00:08:37.821Z,23.88
2018-09-22T00:09:09.940Z,23.89
2018-09-22T00:09:42.102Z,23.89
2018-09-22T00:10:14.291Z,23.89
2018-09-22T00:10:46.489Z,23.89
2018-09-22T00:11:18.665Z,23.87
2018-09-22T00:11:50.781Z,23.87
2018-09-22T00:12:22.941Z,23.86
2018-09-22T00:12:55.074Z,23.85
2018-09-22T00:13:27.323Z,23.86
2018-09-22T00:13:59.477Z,23.87
2018-09-22T00:14:31.603Z,23.86
2018-09-22T00:15:03.790Z,23.87
2018-09-22T00:15:36.064Z,23.87
2018-09-22T00:16:08.189Z,23.87
2018-09-22T00:16:40.342Z,23.86
2018-09-22T00:17:12.611Z,23.87
2018-09-22T00:17:44.781Z,23.86
2018-09-22T00:18:16.957Z,23.86
2018-09-22T00:18:49.106Z,23.86
2018-09-22T00:19:21.262Z,23.86
2018-09-22T00:19:53.473Z,23.87
2018-09-22T00:20:25.962Z,23.86
2018-09-22T00:20:58.077Z,23.84
2018-09-22T00:21:30.379Z,23.85
2018-09-22T00:22:02.527Z,23.85
2018-09-22T00:22:34.693Z,23.85
2018-09-22T00:23:06.838Z,23.85
2018-09-22T00:23:39.133Z,23.84
2018-09-22T00:24:11.422Z,23.84
2018-09-22T00:24:43.708Z,23.84
2018-09-22T00:25:15.981Z,23.84
2018-09-22T00:25:48.126Z,23.84
2018-09-22T00:26:20.267Z,23.85
2018-09-22T00:26:52.526Z,23.84
2018-09-22T00:27:24.753Z,23.84
2018-09-22T00:27:57.254Z,23.84
2018-09-22T00:28:29.384Z,23.85
2018-09-22T00:29:01.553Z,23.86
2018-09-22T00:29:33.990Z,23.85
2018-09-22T00:30:06.292Z,23.85
2018-09-22T00:30:38.424Z,23.85
2018-09-22T00:31:10.654Z,23.85
2018-09-22T00:31:42.810Z,23.84
2018-09-22T00:32:14.950Z,23.83
2018-09-22T00:32:47.110Z,23.84
2018-09-22T00:33:19.266Z,23.85
2018-09-22T00:33:51.413Z,23.83
2018-09-22T00:34:23.565Z,23.85
2018-09-22T00:34:55.710Z,23.84
2018-09-22T00:35:27.985Z,23.84
2018-09-22T00:36:00.139Z,23.84
2018-09-22T00:36:32.261Z,23.84
2018-09-22T00:37:04.689Z,23.83
2018-09-22T00:37:37.038Z,23.84
2018-09-22T00:38:09.181Z,23.84
2018-09-22T00:38:41.666Z,23.84
2018-09-22T00:39:13.817Z,23.84
2018-09-22T00:39:46.069Z,23.85
2018-09-22T00:40:18.332Z,23.82
2018-09-22T00:40:50.506Z,23.83
2018-09-22T00:41:22.948Z,23.84
2018-09-22T00:41:55.107Z,23.84
2018-09-22T00:42:27.254Z,23.83
2018-09-22T00:42:59.502Z,23.83
2018-09-22T00:43:31.648Z,23.83
2018-09-22T00:44:03.778Z,23.84
2018-09-22T00:44:35.978Z,23.83
2018-09-22T00:45:08.102Z,23.84
2018-09-22T00:45:40.271Z,23.83
2018-09-22T00:46:12.439Z,23.84
2018-09-22T00:46:44.788Z,23.84
2018-09-22T00:47:16.909Z,23.83
2018-09-22T00:47:49.266Z,23.81
2018-09-22T00:48:21.465Z,23.84
2018-09-22T00:48:53.585Z,23.83
2018-09-22T00:49:25.799Z,23.84
2018-09-22T00:49:57.989Z,23.83
2018-09-22T00:50:30.169Z,23.84
2018-09-22T00:51:02.325Z,23.83
2018-09-22T00:51:34.427Z,23.82
2018-09-22T00:52:06.526Z,23.82
2018-09-22T00:52:38.697Z,23.82
2018-09-22T00:53:10.916Z,23.83
2018-09-22T00:53:43.026Z,23.82
2018-09-22T00:54:15.269Z,23.82
2018-09-22T00:54:47.516Z,23.82
2018-09-22T00:55:19.685Z,23.83
2018-09-22T00:55:51.809Z,23.82
2018-09-22T00:56:24.042Z,23.81
2018-09-22T00:56:56.201Z,23.80
2018-09-22T00:57:28.307Z,23.81
2018-09-22T00:58:00.503Z,23.81
2018-09-22T00:58:32.723Z,23.80
2018-09-22T00:59:04.781Z,23.81
2018-09-22T00:59:36.917Z,23.81
2018-09-22T01:00:09.033Z,23.80
2018-09-22T01:00:41.380Z,23.80
2018-09-22T01:01:13.556Z,23.83
2018-09-22T01:01:45.751Z,23.82
2018-09-22T01:02:17.879Z,23.81
2018-09-22T01:02:50.094Z,23.80
2018-09-22T01:03:22.231Z,23.80
2018-09-22T01:03:54.353Z,23.79
2018-09-22T01:04:26.487Z,23.81
2018-09-22T01:04:58.618Z,23.81
2018-09-22T01:05:30.877Z,23.81
2018-09-22T01:06:03.022Z,23.82
2018-09-22T01:06:35.129Z,23.81
2018-09-22T01:07:07.221Z,23.80
2018-09-22T01:07:39.388Z,23.80
2018-09-22T01:08:11.513Z,23.79
2018-09-22T01:08:43.637Z,23.79
2018-09-22T01:09:15.801Z,23.79
2018-09-22T01:09:48.197Z,23.80
2018-09-22T01:10:20.484Z,23.79
2018-09-22T01:10:52.605Z,23.79
2018-09-22T01:11:24.789Z,23.79
2018-09-22T01:11:56.947Z,23.78
2018-09-22T01:12:29.045Z,23.79
2018-09-22T01:13:01.206Z,23.79
2018-09-22T01:13:33.612Z,23.79
2018-09-22T01:14:05.739Z,23.80
2018-09-22T01:14:37.836Z,23.79
2018-09-22T01:15:10.175Z,23.79
2018-09-22T01:15:42.419Z,23.79
2018-09-22T01:16:14.455Z,23.80
2018-09-22T01:16:46.601Z,23.80
2018-09-22T01:17:18.866Z,23.79
2018-09-22T01:17:51.049Z,23.80
2018-09-22T01:18:23.203Z,23.79
2018-09-22T01:18:55.432Z,23.79
2018-09-22T01:19:27.575Z,23.79
2018-09-22T01:19:59.703Z,23.79
2018-09-22T01:20:32.228Z,23.79
2018-09-22T01:21:04.528Z,23.79
2018-09-22T01:21:36.741Z,23.77
2018-09-22T01:22:08.974Z,23.78
2018-09-22T01:22:41.120Z,23.77
2018-09-22T01:23:13.445Z,23.78
2018-09-22T01:23:45.676Z,23.78
2018-09-22T01:24:17.919Z,23.79
2018-09-22T01:24:50.053Z,23.77
2018-09-22T01:25:22.226Z,23.77
2018-09-22T01:25:54.382Z,23.77
2018-09-22T01:26:26.535Z,23.78
2018-09-22T01:26:58.821Z,23.78
2018-09-22T01:27:30.986Z,23.78
2018-09-22T01:28:03.141Z,23.78
2018-09-22T01:28:35.458Z,23.79
2018-09-22T01:29:07.684Z,23.78
2018-09-22T01:29:39.804Z,23.79
2018-09-22T01:30:12.118Z,23.78
2018-09-22T01:30:44.257Z,23.79
2018-09-22T01:31:16.519Z,23.79
2018-09-22T01:31:48.628Z,23.78
2018-09-22T01:32:20.729Z,23.79
2018-09-22T01:32:53.001Z,23.77
2018-09-22T01:33:25.151Z,23.76
2018-09-22T01:33:57.293Z,23.77
2018-09-22T01:34:29.433Z,23.76
2018-09-22T01:35:01.614Z,23.76
2018-09-22T01:35:33.714Z,23.78
2018-09-22T01:36:05.945Z,23.78
2018-09-22T01:36:38.206Z,23.78
2018-09-22T01:37:10.330Z,23.76
2018-09-22T01:37:42.691Z,23.76
2018-09-22T01:38:14.818Z,23.74
2018-09-22T01:38:46.981Z,23.74
2018-09-22T01:39:19.121Z,23.75
2018-09-22T01:39:51.242Z,23.76
2018-09-22T01:40:23.365Z,23.74
2018-09-22T01:40:55.510Z,23.76
2018-09-22T01:41:27.778Z,23.76
2018-09-22T01:41:59.962Z,23.77
2018-09-22T01:42:32.095Z,23.77
2018-09-22T01:43:04.236Z,23.77
2018-09-22T01:43:37.006Z,23.77
2018-09-22T01:44:09.153Z,23.78
2018-09-22T01:44:41.298Z,23.76
2018-09-22T01:45:13.539Z,23.77
2018-09-22T01:45:45.668Z,23.76
2018-09-22T01:46:17.807Z,23.76
2018-09-22T01:46:49.919Z,23.75
2018-09-22T01:47:22.388Z,23.76
2018-09-22T01:47:54.541Z,23.76
2018-09-22T01:48:26.866Z,23.76
2018-09-22T01:48:59.007Z,23.76
2018-09-22T01:49:31.162Z,23.74
2018-09-22T01:50:03.413Z,23.75
2018-09-22T01:50:35.611Z,23.74
2018-09-22T01:51:07.756Z,23.74
2018-09-22T01:51:39.977Z,23.73
2018-09-22T01:52:12.197Z,23.74
2018-09-22T01:52:44.386Z,23.75
2018-09-22T01:53:16.554Z,23.74
2018-09-22T01:53:48.908Z,23.75
2018-09-22T01:54:21.035Z,23.76
2018-09-22T01:54:53.181Z,23.77
2018-09-22T01:55:25.361Z,23.74
2018-09-22T01:55:57.560Z,23.74
2018-09-22T01:56:29.686Z,23.76
2018-09-22T01:57:02.129Z,23.76
2018-09-22T01:57:34.263Z,23.74
2018-09-22T01:58:06.380Z,23.74
2018-09-22T01:58:38.529Z,23.74
2018-09-22T01:59:10.708Z,23.74
2018-09-22T01:59:42.860Z,23.74
2018-09-22T02:00:15.391Z,23.74
2018-09-22T02:00:47.532Z,23.73
2018-09-22T02:01:19.805Z,23.72
2018-09-22T02:01:52.263Z,23.72
2018-09-22T02:02:24.520Z,23.73
2018-09-22T02:02:56.634Z,23.74
2018-09-22T02:03:28.845Z,23.73
2018-09-22T02:04:00.962Z,23.73
2018-09-22T02:04:33.082Z,23.73
2018-09-22T02:05:05.212Z,23.72
2018-09-22T02:05:37.351Z,23.73
2018-09-22T02:06:09.499Z,23.72
2018-09-22T02:06:41.644Z,23.73
2018-09-22T02:07:13.877Z,23.73
2018-09-22T02:07:46.133Z,23.72
2018-09-22T02:08:18.319Z,23.71
2018-09-22T02:08:50.595Z,23.73
2018-09-22T02:09:22.736Z,23.72
2018-09-22T02:09:55.044Z,23.73
2018-09-22T02:10:27.253Z,23.72
2018-09-22T02:10:59.342Z,23.71
2018-09-22T02:11:31.449Z,23.72
2018-09-22T02:12:03.593Z,23.73
2018-09-22T02:12:35.771Z,23.72
2018-09-22T02:13:08.086Z,23.72
2018-09-22T02:13:40.246Z,23.72
2018-09-22T02:14:12.623Z,23.73
2018-09-22T02:14:44.854Z,23.73
2018-09-22T02:15:17.039Z,23.72
2018-09-22T02:15:49.154Z,23.71
2018-09-22T02:16:21.426Z,23.71
2018-09-22T02:16:53.703Z,23.71
2018-09-22T02:17:25.960Z,23.71
2018-09-22T02:17:58.095Z,23.71
2018-09-22T02:18:30.574Z,23.70
2018-09-22T02:19:02.832Z,23.71
2018-09-22T02:19:35.059Z,23.71
2018-09-22T02:20:07.262Z,23.72
2018-09-22T02:20:39.577Z,23.72
2018-09-22T02:21:12.035Z,23.72
2018-09-22T02:21:44.291Z,23.72
2018-09-22T02:22:16.545Z,23.72
2018-09-22T02:22:48.678Z,23.71
2018-09-22T02:23:20.886Z,23.71
2018-09-22T02:23:53.114Z,23.70
2018-09-22T02:24:25.269Z,23.71
2018-09-22T02:24:57.490Z,23.71
2018-09-22T02:25:29.775Z,23.70
2018-09-22T02:26:01.916Z,23.70
2018-09-22T02:26:34.121Z,23.71
2018-09-22T02:27:06.246Z,23.72
2018-09-22T02:27:38.390Z,23.71
2018-09-22T02:28:10.511Z,23.71
2018-09-22T02:28:42.641Z,23.72
2018-09-22T02:29:14.894Z,23.71
2018-09-22T02:29:47.010Z,23.71
2018-09-22T02:30:19.371Z,23.71
2018-09-22T02:30:51.479Z,23.71
2018-09-22T02:31:23.593Z,23.70
2018-09-22T02:31:55.938Z,23.70
2018-09-22T02:32:28.041Z,23.69
2018-09-22T02:33:00.202Z,23.71
2018-09-22T02:33:32.500Z,23.72
2018-09-22T02:34:04.775Z,23.72
2018-09-22T02:34:36.877Z,23.72
2018-09-22T02:35:09.011Z,23.72
2018-09-22T02:35:41.163Z,23.71
2018-09-22T02:36:13.262Z,23.71
2018-09-22T02:36:45.589Z,23.71
2018-09-22T02:37:17.725Z,23.70
2018-09-22T02:37:49.963Z,23.70
2018-09-22T02:38:22.139Z,23.71
2018-09-22T02:38:54.309Z,23.69
2018-09-22T02:39:26.498Z,23.70
2018-09-22T02:39:58.607Z,23.70
2018-09-22T02:40:30.746Z,23.70
2018-09-22T02:41:03.074Z,23.69
2018-09-22T02:41:35.214Z,23.69
2018-09-22T02:42:07.346Z,23.69
2018-09-22T02:42:39.552Z,23.69
2018-09-22T02:43:11.884Z,23.69
2018-09-22T02:43:44.195Z,23.68
2018-09-22T02:44:16.322Z,23.68
2018-09-22T02:44:48.467Z,23.69
2018-09-22T02:45:20.600Z,23.69
2018-09-22T02:45:52.754Z,23.67
2018-09-22T02:46:24.866Z,23.68
2018-09-22T02:46:57.020Z,23.68
2018-09-22T02:47:29.321Z,23.68
2018-09-22T02:48:01.450Z,23.68
2018-09-22T02:48:33.631Z,23.68
2018-09-22T02:49:05.758Z,23.70
2018-09-22T02:49:38.022Z,23.70
2018-09-22T02:50:10.169Z,23.72
2018-09-22T02:50:42.374Z,23.70
2018-09-22T02:51:14.533Z,23.70
2018-09-22T02:51:46.778Z,23.69
2018-09-22T02:52:18.989Z,23.69
2018-09-22T02:52:51.389Z,23.69
2018-09-22T02:53:23.553Z,23.69
2018-09-22T02:53:55.790Z,23.70
2018-09-22T02:54:27.965Z,23.69
2018-09-22T02:55:00.219Z,23.68
2018-09-22T02:55:32.538Z,23.69
2018-09-22T02:56:04.914Z,23.68
2018-09-22T02:56:37.071Z,23.68
2018-09-22T02:57:09.702Z,23.69
2018-09-22T02:57:41.912Z,23.67
2018-09-22T02:58:14.168Z,23.66
2018-09-22T02:58:46.339Z,23.67
2018-09-22T02:59:18.584Z,23.67
2018-09-22T02:59:50.729Z,23.65
2018-09-22T03:00:22.851Z,23.65
2018-09-22T03:00:54.972Z,23.66
2018-09-22T03:01:27.195Z,23.66
2018-09-22T03:01:59.322Z,23.68
2018-09-22T03:02:31.474Z,23.67
2018-09-22T03:03:03.565Z,23.66
2018-09-22T03:03:35.786Z,23.66
2018-09-22T03:04:08.052Z,23.68
2018-09-22T03:04:40.224Z,23.66
2018-09-22T03:05:12.405Z,23.66
2018-09-22T03:05:44.625Z,23.67
2018-09-22T03:06:16.886Z,23.66
2018-09-22T03:06:49.041Z,23.66
2018-09-22T03:07:21.190Z,23.66
2018-09-22T03:07:53.307Z,23.66
2018-09-22T03:08:25.478Z,23.66
2018-09-22T03:08:57.623Z,23.66
2018-09-22T03:09:29.746Z,23.66
2018-09-22T03:10:01.951Z,23.66
2018-09-22T03:10:34.196Z,23.67
2018-09-22T03:11:06.354Z,23.67
2018-09-22T03:11:38.500Z,23.66
2018-09-22T03:12:10.851Z,23.66
2018-09-22T03:12:42.970Z,23.65
2018-09-22T03:13:15.298Z,23.65
2018-09-22T03:13:47.428Z,23.65
2018-09-22T03:14:19.569Z,23.64
2018-09-22T03:14:51.669Z,23.63
2018-09-22T03:15:23.946Z,23.63
2018-09-22T03:15:56.031Z,23.64
2018-09-22T03:16:28.162Z,23.64
2018-09-22T03:17:00.311Z,23.64
2018-09-22T03:17:32.606Z,23.65
2018-09-22T03:18:04.806Z,23.66
2018-09-22T03:18:36.940Z,23.65
2018-09-22T03:19:09.054Z,23.64
2018-09-22T03:19:41.217Z,23.65
2018-09-22T03:20:13.327Z,23.66
2018-09-22T03:20:45.476Z,23.66
2018-09-22T03:21:17.605Z,23.65
2018-09-22T03:21:49.727Z,23.63
2018-09-22T03:22:21.849Z,23.66
2018-09-22T03:22:54.010Z,23.66
2018-09-22T03:23:26.225Z,23.65
2018-09-22T03:23:58.660Z,23.65
2018-09-22T03:24:30.782Z,23.64
2018-09-22T03:25:02.969Z,23.64
2018-09-22T03:25:35.122Z,23.64
2018-09-22T03:26:07.251Z,23.64
2018-09-22T03:26:39.361Z,23.64
2018-09-22T03:27:11.671Z,23.64
2018-09-22T03:27:43.972Z,23.64
2018-09-22T03:28:16.200Z,23.65
2018-09-22T03:28:48.369Z,23.65
2018-09-22T03:29:20.502Z,23.65
2018-09-22T03:29:52.641Z,23.66
2018-09-22T03:30:24.757Z,23.65
2018-09-22T03:30:56.906Z,23.65
2018-09-22T03:31:29.045Z,23.65
2018-09-22T03:32:01.202Z,23.65
2018-09-22T03:32:33.353Z,23.64
2018-09-22T03:33:05.512Z,23.63
2018-09-22T03:33:37.869Z,23.64
2018-09-22T03:34:10.104Z,23.63
2018-09-22T03:34:42.268Z,23.65
2018-09-22T03:35:14.506Z,23.63
2018-09-22T03:35:46.647Z,23.65
2018-09-22T03:36:18.858Z,23.63
2018-09-22T03:36:51.099Z,23.63
2018-09-22T03:37:23.211Z,23.65
2018-09-22T03:37:55.328Z,23.63
2018-09-22T03:38:27.430Z,23.63
2018-09-22T03:38:59.539Z,23.64
2018-09-22T03:39:31.635Z,23.63
2018-09-22T03:40:03.768Z,23.63
2018-09-22T03:40:35.884Z,23.64
2018-09-22T03:41:08.273Z,23.64
2018-09-22T03:41:40.386Z,23.63
2018-09-22T03:42:12.614Z,23.65
2018-09-22T03:42:44.767Z,23.65
2018-09-22T03:43:16.897Z,23.64
2018-09-22T03:43:49.053Z,23.63
2018-09-22T03:44:21.175Z,23.62
2018-09-22T03:44:53.516Z,23.63
2018-09-22T03:45:25.869Z,23.62
2018-09-22T03:45:58.027Z,23.62
2018-09-22T03:46:30.280Z,23.60
2018-09-22T03:47:02.439Z,23.61
2018-09-22T03:47:34.749Z,23.62
2018-09-22T03:48:07.052Z,23.63
2018-09-22T03:48:39.165Z,23.63
2018-09-22T03:49:11.300Z,23.63
2018-09-22T03:49:43.697Z,23.62
2018-09-22T03:50:15.953Z,23.61
2018-09-22T03:50:48.069Z,23.61
2018-09-22T03:51:20.188Z,23.61
2018-09-22T03:51:52.358Z,23.62
2018-09-22T03:52:24.515Z,23.62
2018-09-22T03:52:56.672Z,23.61
2018-09-22T03:53:29.014Z,23.62
2018-09-22T03:54:01.161Z,23.62
2018-09-22T03:54:33.294Z,23.61
2018-09-22T03:55:05.596Z,23.60
2018-09-22T03:55:37.698Z,23.62
2018-09-22T03:56:09.891Z,23.62
2018-09-22T03:56:42.018Z,23.63
2018-09-22T03:57:14.152Z,23.62
2018-09-22T03:57:46.327Z,23.62
2018-09-22T03:58:18.647Z,23.61
2018-09-22T03:58:50.782Z,23.60
2018-09-22T03:59:22.952Z,23.59
2018-09-22T03:59:55.398Z,23.60
2018-09-22T04:00:27.582Z,23.60
2018-09-22T04:00:59.730Z,23.60
2018-09-22T04:01:31.985Z,23.60
2018-09-22T04:02:04.221Z,23.61
2018-09-22T04:02:36.514Z,23.61
2018-09-22T04:03:08.773Z,23.60
2018-09-22T04:03:40.919Z,23.60
2018-09-22T04:04:13.150Z,23.61
2018-09-22T04:04:45.285Z,23.62
2018-09-22T04:05:17.517Z,23.61
2018-09-22T04:05:49.957Z,23.61
2018-09-22T04:06:22.233Z,23.61
2018-09-22T04:06:54.398Z,23.61
2018-09-22T04:07:26.521Z,23.60
2018-09-22T04:07:59.002Z,23.61
2018-09-22T04:08:31.161Z,23.61
2018-09-22T04:09:03.294Z,23.61
2018-09-22T04:09:35.475Z,23.61
2018-09-22T04:10:07.642Z,23.60
2018-09-22T04:10:39.754Z,23.60
2018-09-22T04:11:11.897Z,23.59
2018-09-22T04:11:44.064Z,23.60
2018-09-22T04:12:16.229Z,23.61
2018-09-22T04:12:48.410Z,23.60
2018-09-22T04:13:20.547Z,23.59
2018-09-22T04:13:52.802Z,23.59
2018-09-22T04:14:25.070Z,23.59
2018-09-22T04:14:57.416Z,23.58
2018-09-22T04:15:29.762Z,23.58
2018-09-22T04:16:02.041Z,23.59
2018-09-22T04:16:34.459Z,23.60
2018-09-22T04:17:06.603Z,23.58
2018-09-22T04:17:38.734Z,23.59
2018-09-22T04:18:10.874Z,23.59
2018-09-22T04:18:43.009Z,23.59
2018-09-22T04:19:15.157Z,23.58
2018-09-22T04:19:47.285Z,23.58
2018-09-22T04:20:19.565Z,23.57
2018-09-22T04:20:51.830Z,23.57
2018-09-22T04:21:24.053Z,23.57
2018-09-22T04:21:56.228Z,23.58
2018-09-22T04:22:28.339Z,23.60
2018-09-22T04:23:00.473Z,23.58
2018-09-22T04:23:32.626Z,23.58
2018-09-22T04:24:04.759Z,23.58
2018-09-22T04:24:36.909Z,23.60
2018-09-22T04:25:09.129Z,23.58
2018-09-22T04:25:41.286Z,23.58
2018-09-22T04:26:13.450Z,23.57
2018-09-22T04:26:45.633Z,23.57
2018-09-22T04:27:17.958Z,23.58
2018-09-22T04:27:50.151Z,23.59
2018-09-22T04:28:22.270Z,23.58
2018-09-22T04:28:54.546Z,23.57
2018-09-22T04:29:26.703Z,23.58
2018-09-22T04:29:58.965Z,23.57
2018-09-22T04:30:31.209Z,23.58
2018-09-22T04:31:03.314Z,23.58
2018-09-22T04:31:35.452Z,23.57
2018-09-22T04:32:07.573Z,23.56
2018-09-22T04:32:39.772Z,23.57
2018-09-22T04:33:12.064Z,23.58
2018-09-22T04:33:44.278Z,23.58
2018-09-22T04:34:16.571Z,23.57
2018-09-22T04:34:48.730Z,23.58
2018-09-22T04:35:20.864Z,23.58
2018-09-22T04:35:53.135Z,23.58
2018-09-22T04:36:25.253Z,23.58
2018-09-22T04:36:57.529Z,23.58
2018-09-22T04:37:29.782Z,23.57
2018-09-22T04:38:01.948Z,23.57
2018-09-22T04:38:34.133Z,23.57
2018-09-22T04:39:06.229Z,23.58
2018-09-22T04:39:38.333Z,23.58
2018-09-22T04:40:10.563Z,23.57
2018-09-22T04:40:42.852Z,23.56
2018-09-22T04:41:15.134Z,23.56
2018-09-22T04:41:47.391Z,23.57
2018-09-22T04:42:19.517Z,23.57
2018-09-22T04:42:51.807Z,23.58
2018-09-22T04:43:24.130Z,23.58
2018-09-22T04:43:56.339Z,23.57
2018-09-22T04:44:28.587Z,23.56
2018-09-22T04:45:00.804Z,23.57
2018-09-22T04:45:32.967Z,23.55
2018-09-22T04:46:05.210Z,23.55
2018-09-22T04:46:37.337Z,23.54
2018-09-22T04:47:09.526Z,23.55
2018-09-22T04:47:41.781Z,23.55
2018-09-22T04:48:13.903Z,23.54
2018-09-22T04:48:46.188Z,23.55
2018-09-22T04:49:18.768Z,23.54
2018-09-22T04:49:51.114Z,23.53
2018-09-22T04:50:23.363Z,23.52
2018-09-22T04:50:55.620Z,23.54
2018-09-22T04:51:27.800Z,23.55
2018-09-22T04:51:59.997Z,23.55
2018-09-22T04:52:32.219Z,23.52
2018-09-22T04:53:04.466Z,23.51
2018-09-22T04:53:37.326Z,23.52
2018-09-22T04:54:09.569Z,23.52
2018-09-22T04:54:41.928Z,23.52
2018-09-22T04:55:14.053Z,23.52
2018-09-22T04:55:46.163Z,23.52
2018-09-22T04:56:18.358Z,23.52
2018-09-22T04:56:50.537Z,23.53
2018-09-22T04:57:22.823Z,23.53
2018-09-22T04:57:55.056Z,23.53
2018-09-22T04:58:27.662Z,23.53
2018-09-22T04:58:59.813Z,23.54
2018-09-22T04:59:32.031Z,23.55
2018-09-22T05:00:04.371Z,23.54
2018-09-22T05:00:36.500Z,23.53
2018-09-22T05:01:08.874Z,23.53
2018-09-22T05:01:41.025Z,23.52
2018-09-22T05:02:13.228Z,23.53
2018-09-22T05:02:45.370Z,23.53
2018-09-22T05:03:17.552Z,23.52
2018-09-22T05:03:49.842Z,23.52
2018-09-22T05:04:22.002Z,23.54
2018-09-22T05:04:54.139Z,23.54
2018-09-22T05:05:26.270Z,23.54
2018-09-22T05:05:58.425Z,23.53
2018-09-22T05:06:30.616Z,23.52
2018-09-22T05:07:02.727Z,23.52
2018-09-22T05:07:34.833Z,23.51
2018-09-22T05:08:06.966Z,23.52
2018-09-22T05:08:39.106Z,23.53
2018-09-22T05:09:11.270Z,23.53
2018-09-22T05:09:43.451Z,23.52
2018-09-22T05:10:15.609Z,23.52
2018-09-22T05:10:47.850Z,23.51
2018-09-22T05:11:20.115Z,23.51
2018-09-22T05:11:52.296Z,23.51
2018-09-22T05:12:24.650Z,23.50
2018-09-22T05:12:56.800Z,23.50
2018-09-22T05:13:28.946Z,23.51
2018-09-22T05:14:01.293Z,23.53
2018-09-22T05:14:33.542Z,23.51
2018-09-22T05:15:05.713Z,23.52
2018-09-22T05:15:37.810Z,23.52
2018-09-22T05:16:09.970Z,23.52
2018-09-22T05:16:42.155Z,23.52
2018-09-22T05:17:14.250Z,23.52
2018-09-22T05:17:46.570Z,23.51
2018-09-22T05:18:18.698Z,23.53
2018-09-22T05:18:50.865Z,23.53
2018-09-22T05:19:23.246Z,23.51
2018-09-22T05:19:55.356Z,23.52
2018-09-22T05:20:27.552Z,23.50
2018-09-22T05:20:59.688Z,23.49
2018-09-22T05:21:31.791Z,23.50
2018-09-22T05:22:04.005Z,23.51
2018-09-22T05:22:36.202Z,23.52
2018-09-22T05:23:08.323Z,23.53
2018-09-22T05:23:40.474Z,23.51
2018-09-22T05:24:12.729Z,23.51
2018-09-22T05:24:44.974Z,23.51
2018-09-22T05:25:17.143Z,23.51
2018-09-22T05:25:49.345Z,23.53
2018-09-22T05:26:21.439Z,23.51
2018-09-22T05:26:53.571Z,23.53
2018-09-22T05:27:25.725Z,23.53
2018-09-22T05:27:58.006Z,23.53
2018-09-22T05:28:30.274Z,23.53
2018-09-22T05:29:02.526Z,23.53
2018-09-22T05:29:34.711Z,23.52
2018-09-22T05:30:06.856Z,23.51
2018-09-22T05:30:39.085Z,23.50
2018-09-22T05:31:11.221Z,23.51
2018-09-22T05:31:43.372Z,23.49
2018-09-22T05:32:15.497Z,23.51
2018-09-22T05:32:47.732Z,23.51
2018-09-22T05:33:19.847Z,23.52
2018-09-22T05:33:52.139Z,23.52
2018-09-22T05:34:24.255Z,23.51
2018-09-22T05:34:56.385Z,23.52
2018-09-22T05:35:28.682Z,23.51
2018-09-22T05:36:00.773Z,23.51
2018-09-22T05:36:32.909Z,23.53
2018-09-22T05:37:05.065Z,23.51
2018-09-22T05:37:37.219Z,23.51
2018-09-22T05:38:09.366Z,23.51
2018-09-22T05:38:41.603Z,23.50
2018-09-22T05:39:13.746Z,23.49
2018-09-22T05:39:45.854Z,23.50
2018-09-22T05:40:18.194Z,23.50
2018-09-22T05:40:50.508Z,23.51
2018-09-22T05:41:22.781Z,23.52
2018-09-22T05:41:55.038Z,23.50
2018-09-22T05:42:27.217Z,23.50
2018-09-22T05:42:59.513Z,23.50
2018-09-22T05:43:31.732Z,23.50
2018-09-22T05:44:03.878Z,23.50
2018-09-22T05:44:36.048Z,23.49
2018-09-22T05:45:08.501Z,23.49
2018-09-22T05:45:40.657Z,23.50
2018-09-22T05:46:12.882Z,23.50
2018-09-22T05:46:45.167Z,23.51
2018-09-22T05:47:17.279Z,23.50
2018-09-22T05:47:49.474Z,23.48
2018-09-22T05:48:21.836Z,23.48
2018-09-22T05:48:54.110Z,23.47
2018-09-22T05:49:26.449Z,23.48
2018-09-22T05:49:58.604Z,23.49
2018-09-22T05:50:30.707Z,23.49
2018-09-22T05:51:03.072Z,23.49
2018-09-22T05:51:35.373Z,23.49
2018-09-22T05:52:07.513Z,23.48
2018-09-22T05:52:39.730Z,23.48
2018-09-22T05:53:12.000Z,23.49
2018-09-22T05:53:44.375Z,23.49
2018-09-22T05:54:16.770Z,23.50
2018-09-22T05:54:48.986Z,23.49
2018-09-22T05:55:21.112Z,23.49
2018-09-22T05:55:53.296Z,23.49
2018-09-22T05:56:25.477Z,23.49
2018-09-22T05:56:57.600Z,23.48
2018-09-22T05:57:29.953Z,23.48
2018-09-22T05:58:02.174Z,23.48
2018-09-22T05:58:34.399Z,23.48
2018-09-22T05:59:06.712Z,23.48
2018-09-22T05:59:38.831Z,23.49
2018-09-22T06:00:11.097Z,23.48
2018-09-22T06:00:43.234Z,23.48
2018-09-22T06:01:15.347Z,23.49
2018-09-22T06:01:47.458Z,23.48
2018-09-22T06:02:19.617Z,23.48
2018-09-22T06:02:51.750Z,23.49
2018-09-22T06:03:24.007Z,23.49
2018-09-22T06:03:56.304Z,23.50
2018-09-22T06:04:28.260Z,23.51
2018-09-22T06:05:00.452Z,23.51
2018-09-22T06:05:32.612Z,23.50
2018-09-22T06:06:04.785Z,23.51
2018-09-22T06:06:37.117Z,23.51
2018-09-22T06:07:09.265Z,23.52
2018-09-22T06:07:41.385Z,23.51
2018-09-22T06:08:13.690Z,23.51
2018-09-22T06:08:45.873Z,23.50
2018-09-22T06:09:18.027Z,23.49
2018-09-22T06:09:50.175Z,23.49
2018-09-22T06:10:22.303Z,23.48
2018-09-22T06:10:54.422Z,23.49
2018-09-22T06:11:26.562Z,23.48
2018-09-22T06:11:58.686Z,23.48
2018-09-22T06:12:30.818Z,23.48
2018-09-22T06:13:02.945Z,23.49
2018-09-22T06:13:35.066Z,23.49
2018-09-22T06:14:07.186Z,23.49
2018-09-22T06:14:39.306Z,23.49
2018-09-22T06:15:11.484Z,23.48
2018-09-22T06:15:43.954Z,23.48
2018-09-22T06:16:16.507Z,23.48
2018-09-22T06:16:48.630Z,23.48
2018-09-22T06:17:20.785Z,23.47
2018-09-22T06:17:52.900Z,23.47
2018-09-22T06:18:25.068Z,23.48
2018-09-22T06:18:57.220Z,23.48
2018-09-22T06:19:29.382Z,23.47
2018-09-22T06:20:01.505Z,23.48
2018-09-22T06:20:33.688Z,23.48
2018-09-22T06:21:05.798Z,23.46
2018-09-22T06:21:38.044Z,23.48
2018-09-22T06:22:10.453Z,23.48
2018-09-22T06:22:42.589Z,23.49
2018-09-22T06:23:14.858Z,23.48
2018-09-22T06:23:46.998Z,23.47
2018-09-22T06:24:19.329Z,23.47
2018-09-22T06:24:51.495Z,23.47
2018-09-22T06:25:23.738Z,23.47
2018-09-22T06:25:55.841Z,23.47
2018-09-22T06:26:28.044Z,23.47
2018-09-22T06:27:00.169Z,23.48
2018-09-22T06:27:32.355Z,23.47
2018-09-22T06:28:04.656Z,23.48
2018-09-22T06:28:36.996Z,23.47
2018-09-22T06:29:09.158Z,23.49
2018-09-22T06:29:41.381Z,23.49
2018-09-22T06:30:13.744Z,23.50
2018-09-22T06:30:45.882Z,23.49
2018-09-22T06:31:18.002Z,23.51
2018-09-22T06:31:50.096Z,23.51
2018-09-22T06:32:22.186Z,23.51
2018-09-22T06:32:54.287Z,23.50
2018-09-22T06:33:26.418Z,23.51
2018-09-22T06:33:58.515Z,23.50
2018-09-22T06:34:30.652Z,23.52
2018-09-22T06:35:03.117Z,23.50
2018-09-22T06:35:35.244Z,23.50
2018-09-22T06:36:07.323Z,23.49
2018-09-22T06:36:39.672Z,23.49
2018-09-22T06:37:11.852Z,23.49
2018-09-22T06:37:43.999Z,23.49
2018-09-22T06:38:16.112Z,23.49
2018-09-22T06:38:48.229Z,23.49
2018-09-22T06:39:20.423Z,23.49
2018-09-22T06:39:52.598Z,23.50
2018-09-22T06:40:24.768Z,23.51
2018-09-22T06:40:56.884Z,23.50
2018-09-22T06:41:29.054Z,23.50
2018-09-22T06:42:01.188Z,23.50
2018-09-22T06:42:33.388Z,23.49
2018-09-22T06:43:06.363Z,23.48
2018-09-22T06:43:38.533Z,23.49
2018-09-22T06:44:10.651Z,23.50
2018-09-22T06:44:42.792Z,23.49
2018-09-22T06:45:14.897Z,23.48
2018-09-22T06:45:47.004Z,23.49
2018-09-22T06:46:19.130Z,23.50
2018-09-22T06:46:51.201Z,23.50
2018-09-22T06:47:23.289Z,23.51
2018-09-22T06:47:55.780Z,23.51
2018-09-22T06:48:28.220Z,23.51
2018-09-22T06:49:00.370Z,23.51
2018-09-22T06:49:32.621Z,23.50
2018-09-22T06:50:04.730Z,23.51
2018-09-22T06:50:36.821Z,23.51
2018-09-22T06:51:09.187Z,23.51
2018-09-22T06:51:41.336Z,23.50
2018-09-22T06:52:13.533Z,23.50
2018-09-22T06:52:45.620Z,23.50
2018-09-22T06:53:17.755Z,23.49
2018-09-22T06:53:50.301Z,23.49
2018-09-22T06:54:22.422Z,23.50